createdAt,value
2023-05-25T00:00:02.960Z,0
2023-05-25T00:15:02.391Z,0
2023-05-25T00:30:02.798Z,0
2023-05-25T00:45:03.269Z,0
2023-05-25T01:00:02.682Z,0
2023-05-25T01:15:03.261Z,0
2023-05-25T01:30:02.557Z,0
2023-05-25T01:45:02.982Z,0
2023-05-25T02:00:02.461Z,0
2023-05-25T02:15:02.873Z,0
2023-05-25T02:30:02.300Z,0
2023-05-25T02:45:02.751Z,0
2023-05-25T03:00:03.261Z,0
2023-05-25T03:15:02.657Z,0
2023-05-25T03:30:03.279Z,0
2023-05-25T03:45:02.534Z,2
2023-05-25T04:00:02.995Z,6
2023-05-25T04:15:02.405Z,12
2023-05-25T04:30:02.837Z,15
2023-05-25T04:45:02.291Z,32
2023-05-25T05:00:02.728Z,42
2023-05-25T05:15:03.363Z,61
2023-05-25T05:30:02.609Z,44
2023-05-25T05:45:03.326Z,103
2023-05-25T06:00:02.505Z,81
2023-05-25T06:15:02.939Z,45
2023-05-25T06:30:02.383Z,64
2023-05-25T06:45:02.837Z,120
2023-05-25T07:00:02.318Z,168
2023-05-25T07:15:02.701Z,313
2023-05-25T07:30:03.310Z,317
2023-05-25T07:45:02.563Z,280
2023-05-25T08:00:03.024Z,168
2023-05-25T08:15:02.454Z,170
2023-05-25T08:30:02.862Z,273
2023-05-25T08:45:02.366Z,162
2023-05-25T09:00:02.760Z,199
2023-05-25T09:15:03.353Z,253
2023-05-25T09:30:02.628Z,271
2023-05-25T09:45:03.074Z,260
2023-05-25T10:00:02.519Z,344
2023-05-25T10:15:02.953Z,328
2023-05-25T10:30:02.398Z,220
2023-05-25T10:45:02.806Z,402
2023-05-25T11:00:03.342Z,203
2023-05-25T11:15:02.695Z,468
2023-05-25T11:30:03.366Z,280
2023-05-25T11:45:02.596Z,361
2023-05-25T12:00:02.987Z,331
2023-05-25T12:15:02.420Z,255
2023-05-25T12:30:02.877Z,959
2023-05-25T12:45:02.380Z,753
2023-05-25T13:00:02.768Z,787
2023-05-25T13:15:03.382Z,371
2023-05-25T13:30:02.644Z,342
2023-05-25T13:45:03.090Z,391
2023-05-25T14:00:02.540Z,383
2023-05-25T14:15:02.980Z,544
2023-05-25T14:30:02.404Z,599
2023-05-25T14:45:02.851Z,611
2023-05-25T15:00:02.466Z,479
2023-05-25T15:15:02.729Z,439
2023-05-25T15:30:03.392Z,420
2023-05-25T15:45:02.618Z,385
2023-05-25T16:00:03.045Z,352
2023-05-25T16:15:02.491Z,311
2023-05-25T16:30:02.934Z,278
2023-05-25T16:45:02.417Z,257
2023-05-25T17:00:02.815Z,212
2023-05-25T17:15:03.409Z,187
2023-05-25T17:30:02.697Z,153
2023-05-25T17:45:03.110Z,85
2023-05-25T18:00:02.573Z,93
2023-05-25T18:15:02.994Z,67
2023-05-25T18:30:02.450Z,43
2023-05-25T18:45:02.877Z,21
2023-05-25T19:00:02.448Z,8
2023-05-25T19:15:02.758Z,1
2023-05-25T19:30:02.199Z,0
2023-05-25T19:45:02.612Z,0
2023-05-25T20:00:03.789Z,0
2023-05-25T20:15:03.499Z,0
2023-05-25T20:30:02.943Z,0
2023-05-25T20:45:02.447Z,0
2023-05-25T21:00:02.789Z,0
2023-05-25T21:15:03.460Z,0
2023-05-25T21:30:02.661Z,0
2023-05-25T21:45:03.128Z,0
2023-05-25T22:00:02.561Z,0
2023-05-25T22:15:02.984Z,0
2023-05-25T22:30:02.473Z,0
2023-05-25T22:45:02.877Z,0
2023-05-25T23:00:02.475Z,0
2023-05-25T23:15:02.767Z,0
2023-05-25T23:30:02.285Z,0
2023-05-25T23:45:02.642Z,0
